Miiana – @miiana_model 2023.05.07June 5, 2023 1646
Download or WATCH ONLINE (285 files)
Click The Lock To Get The Links
  • miiana model - 2021.08.01 2180019646 Mon cul bien ouvert (10.58 MB)
  • miiana model - 2021.08.01 2180019904 Banane (12.92 MB)
  • miiana model - 2021.08.01 2180020315 Squirt avec une bonne queue (60.32 MB)
  • miiana model - 2021.08.01 2180022341 Squirt en solo (116.65 MB)
  • miiana model - 2021.08.01 2180024462 Squirt tres humide (80.38 MB)
  • miiana model - 2021.08.01 2180200075 Vido trio HFF partie 2 30 min avec ma copine @litt (1.18 GB)
  • miiana model - 2021.08.01 2180202240 Vido lesbien partie 1 avec ma Copine @littleangel8 (1.27 GB)
  • miiana model - 2021.08.01 2180202597 Une bonne sodo comme J aime (169.51 MB)
  • miiana model - 2021.08.01 2180210461 Vido dfi je me tape le tmoin du mariage 30 min (1.19 GB)
  • miiana model - 2021.08.03 2182112830 Je me tape le pote mon homme pendant qu il attend s (1.28 GB)
  • miiana model - 2021.08.06 2185276886 Solo du vendredi avec @littleangel84 (617.51 MB)
  • miiana model - 2021.08.08 2187148651 Cadeau du dimanche une baise comme j aime (133.12 MB)
  • miiana model - 2021.08.10 2189216413 Partie 3 ma soire libertine avec ma beaut @diamant1 (660.44 MB)
  • miiana model - 2021.08.10 2189225661 Partie 2 de ma soire libertine avec @diamant1696496 (660.91 MB)
  • miiana model - 2021.08.10 2189227431 Partie 1 ma soire libertine trs hot avec ma chrie (660.6 MB)
  • miiana model - 2021.08.13 2192180953 Retrouve mon show solo un momentavec ma petite chat (323.28 MB)
  • miiana model - 2021.08.15 2194007073 Vido gloryhole avec ma chrie @littleangel84 bien hot (1.29 GB)
  • miiana model - 2021.08.15 2194052241 Cadeau du dimanche une bonne baise matinale aprs ma (154.24 MB)
  • miiana model - 2021.08.17 2195864928 Coucou les copains ma saison 2 est lance voil le (1 GB)
  • miiana model - 2021.08.20 2199009643 On est 'drediiiii les amis et c'est le moment de ma (503.87 MB)
  • miiana model - 2021.08.22 2200579912 Cadeaux du dimanche (200.91 MB)
  • miiana model - 2021.08.24 2202231537 Infirmerie en mode cochone (1.22 GB)
  • miiana model - 2021.08.27 2204980186 (370.84 MB)
  • miiana model - 2021.08.29 2206528252 Squirt cadeau du dimanche soir (78.97 MB)
  • miiana model - 2021.08.31 2208245646 Sextape de la semaine (1.07 GB)
  • miiana model - 2021.09.03 2211116644 Les amis voici mon show du 'drediiiii double gode cu (330.57 MB)
  • miiana model - 2021.09.05 2212722533 Retour de soire avec ma copine @diamant16964963 on (123.32 MB)
  • miiana model - 2021.09.05 2212722538 Retour de soire avec ma copine @diamant16964963 on (69.5 MB)
  • miiana model - 2021.09.06 2213621461 Coucou les amiiiiis vous pouvez retrouver ds mainte (1.73 GB)
  • miiana model - 2021.09.10 2217602085 (406.53 MB)
  • miiana model - 2021.09.12 2218967671 Cadeaux du dimanche anal (169.51 MB)
  • miiana model - 2021.09.13 2219933802 Mon passage au journal du hard sans Censure (206.13 MB)
  • miiana model - 2021.09.14 2220563353 Coucou les amis pisode 5 saison 2 il est temps de (1.63 GB)
  • miiana model - 2021.09.17 2223482481 (450.49 MB)
  • miiana model - 2021.09.19 2224908775 Cadeau du dimanche deux scnes que j adore le faire (128.28 MB)
  • miiana model - 2021.09.21 2226713743 La baise est dans le pr je prends le rle d une prs (486.04 MB)
  • miiana model - 2021.09.21 2226713746 La baise est dans le pr je prends le rle d une prs (478.71 MB)
  • miiana model - 2021.09.24 2229471796 (316.36 MB)
  • miiana model - 2021.09.26 2231011410 Cadeau du dimanche moment lesbien en pleins soire l (169.55 MB)
  • miiana model - 2021.09.28 2232932075 nouvelle sextape pisode 7 de la saison 2 je me (1.46 GB)
  • miiana model - 2021.10.01 2235804047 Mes amis on est 'dredi place la dtente On se ret (481.33 MB)
  • miiana model - 2021.10.03 2237262284 Cadeau du dimanche extrait du trio comme j aime (205.32 MB)
  • miiana model - 2021.10.05 2238832737 Coucou les copains voici l pisode 8 de la saison 2 (1.29 GB)
  • miiana model - 2021.10.07 2240864365 Petit extrait pieds pour ceux qui aimes a il Va y (17.65 MB)
  • miiana model - 2021.10.08 2241705339 (340.17 MB)
  • miiana model - 2021.10.10 2243360057 Cadeau du dimanche hier soir quand je suis rentr d (256.62 MB)
  • miiana model - 2021.10.12 2245240835 Sextape de la semaine footjob soubrette baise h (1.16 GB)
  • miiana model - 2021.10.15 2247871353 Coucou les amis voici la nouvelle vido du 'dredi u (282.68 MB)
  • miiana model - 2021.10.17 2249513236 Cadeaux du dimanche une fellation avec un complice (189.11 MB)
  • miiana model - 2021.10.19 2250927510 (1.31 GB)
  • miiana model - 2021.10.21 2253059249 Dlire du jour (16.86 MB)
  • miiana model - 2021.10.22 2253212576 Coucou les amis nouvelle vido du 'dredi en linge j (201.19 MB)
  • miiana model - 2021.10.24 2254689208 Fellation en pause cigarette (265.33 MB)
  • miiana model - 2021.10.26 2254693428 (1.28 GB)
  • miiana model - 2021.10.29 2259884491 On est 'dredi et je me fais un petit plaisir solo da (433.91 MB)
  • miiana model - 2021.10.31 2261870558 Cadeaux du dimanche une petite exhib au retour de m (271.39 MB)
  • miiana model - 2021.11.02 2263570366 (1.64 GB)
  • miiana model - 2021.11.05 2266270223 (341.6 MB)
  • miiana model - 2021.11.07 2268199168 Cadeau du dimanche quand je me fais baiser en mode (188.67 MB)
  • miiana model - 2021.11.09 2269820014 Vido de la semaine ma sance de yoga tourne en une b (1.1 GB)
  • miiana model - 2021.11.13 2273450716 Coucou les coquins je vous ai mis un solo que j ai (1.05 GB)
  • miiana model - 2021.11.14 2274271101 Nouvelle saison on dmarre ds lundi avec de nouveaux (47.77 MB)
  • miiana model - 2021.11.15 2274358918 pisode 1 de ma tl ralit (1.03 GB)
  • miiana model - 2021.11.17 2274370465 pisode 2 de ma tl ralit (1.28 GB)
  • miiana model - 2021.11.19 2274385156 pisode 3 de ma tl ralit avec ma copine @diamanta (1.59 GB)
  • miiana model - 2021.11.22 2280439433 pisode 4 (526.74 MB)
  • miiana model - 2021.11.24 2280445553 pisode 5 dfi (1.2 GB)
  • miiana model - 2021.11.26 2282150752 pisode 6 de ma tl ralit (1.72 GB)
  • miiana model - 2021.11.29 2286088075 Exhib en mode lush magasin restaurant (1.13 GB)
  • miiana model - 2021.12.01 2286777645 pisode 8 baise de dingue avec un black TTTBM en trio (1.93 GB)
  • miiana model - 2021.12.03 2286785756 pisode 9 anal (1.06 GB)
  • miiana model - 2021.12.06 2294053855 Sextape mode pole dance solo (1.22 GB)
  • miiana model - 2021.12.08 2296109699 Une baise avec mon amant devant mon cocu de mari (1.01 GB)
  • miiana model - 2021.12.10 2296069320 pisode 12 une baise sur le canap en mode FOOTJOB e (1.29 GB)
  • miiana model - 2021.12.13 2299831681 Sextape pisode 13 tl ralit (1.28 GB)
  • miiana model - 2021.12.15 2302644222 Partie 1 GB la suite vendredi (1.25 GB)
  • miiana model - 2021.12.17 2304433286 GB partie 2 le final (1.22 GB)
  • miiana model - 2021.12.20 2306228741 Sextape JOI avec compte rebours (789.21 MB)
  • miiana model - 2021.12.22 2307784850 Je me fais sodomiser en mode mre Nol (1 GB)
  • miiana model - 2021.12.24 2310504134 pisode 17 le bain avec mon canard (988.82 MB)
  • miiana model - 2021.12.27 2312827044 100 footjob sextape (1.15 GB)
  • miiana model - 2021.12.29 2314664320 Sextape soumise anal (1.25 GB)
  • miiana model - 2021.12.31 2316620201 Sextape sextoys (764.87 MB)
  • miiana model - 2022.01.03 2318742922 Gb sextape du lundi (1.93 GB)
  • miiana model - 2022.01.04 2320015904 Mon nouveau passage au journal du hard de canal plus (102.58 MB)
  • miiana model - 2022.01.05 2320822668 Sextape du mercredi plaisir solo (841.83 MB)
  • miiana model - 2022.01.07 2323025555 Sextape rveil avec une bonne fellation (858.82 MB)
  • miiana model - 2022.01.10 2325719414 DFI je me fais baiser par un reprsentant (1.43 GB)
  • miiana model - 2022.01.12 2327995744 Compilation ejac et squirt (920.86 MB)
  • miiana model - 2022.01.14 2329873212 Sextape baise a l htel (956.73 MB)
  • miiana model - 2022.01.17 2332713270 Dfi le masseur (1.47 GB)
  • miiana model - 2022.01.19 2334911536 100 Footjob (944.35 MB)
  • miiana model - 2022.01.21 2336994270 Full anal (807.65 MB)
  • miiana model - 2022.01.24 2340069256 Lesbien avec ma chrie @littleangel84 (1.25 GB)
  • miiana model - 2022.01.24 2340071562 Trio FFH avec ma chrie @littleangel84 (1.01 GB)
  • miiana model - 2022.01.28 2344534403 Exhibe cabine d essayage (772.36 MB)
  • miiana model - 2022.01.31 2347647677 Dfi voisin (1.16 GB)
  • miiana model - 2022.02.02 2350042054 Une baise comme j aime (1.04 GB)
  • miiana model - 2022.02.04 2350982437 Sextape JOI (786.54 MB)
  • miiana model - 2022.02.07 2355463956 Dfi extrieur (1.18 GB)
  • miiana model - 2022.02.09 2356732500 Baise avec mon homme (756.52 MB)
  • miiana model - 2022.02.11 2358040495 Sextape striptease (811.45 MB)
  • miiana model - 2022.02.14 2363131568 Dfi plage avec un inconnu (1.26 GB)
  • miiana model - 2022.02.16 2365447675 Trio black TTTbm (1.93 GB)
  • miiana model - 2022.02.18 2367701565 Solo anal (462.85 MB)
  • miiana model - 2022.02.21 2370994316 Baise anal (1.3 GB)
  • miiana model - 2022.02.23 2373057363 FOOTJOB (952.46 MB)
  • miiana model - 2022.02.25 2375375349 JOI (734.76 MB)
  • miiana model - 2022.02.28 2378131424 Trio HHF avec @bobbylafrite (1.29 GB)
  • miiana model - 2022.03.02 2380131345 Fellation (932.95 MB)
  • miiana model - 2022.03.05 2383124159 Sextape solo (585.68 MB)
  • miiana model - 2022.03.09 2387277148 Baise au cap d agde (1.27 GB)
  • miiana model - 2022.03.11 2389210040 (503.85 MB)
  • miiana model - 2022.03.14 2392020486 Pluralit (1.21 GB)
  • miiana model - 2022.03.16 2393461741 (725.28 MB)
  • miiana model - 2022.03.18 2396510504 Solo anal (806.48 MB)
  • miiana model - 2022.03.21 2399465325 Dfi un jeune tudiant (1.33 GB)
  • miiana model - 2022.03.23 2401586291 Footjob (820.18 MB)
  • miiana model - 2022.03.25 2403926711 Sextape striptease et orgasme (895.49 MB)
  • miiana model - 2022.03.28 2406715169 Sextape baise hard l htel squirt (1.03 GB)
  • miiana model - 2022.03.30 2408890625 Sextape full anal pendant ma sance d tirements (1.2 GB)
  • miiana model - 2022.04.01 2411321558 Sextape godage (1008.74 MB)
  • miiana model - 2022.04.04 2414178672 Dfi je me tape le concessionnaire (1.07 GB)
  • miiana model - 2022.04.06 2416497073 Sextape 100 fellation (704.55 MB)
  • miiana model - 2022.04.08 2418620466 Sextape solo anal et squirt (481.33 MB)
  • miiana model - 2022.04.11 2420832283 Gloryhole avec ma chrie @littleangel84 (1.19 GB)
  • miiana model - 2022.04.13 2423000933 100 footjob (839.69 MB)
  • miiana model - 2022.04.15 2425950835 (861.39 MB)
  • miiana model - 2022.04.18 2428598641 Exhib a paris (1.27 GB)
  • miiana model - 2022.04.20 2430621291 Sextape fellation (384.11 MB)
  • miiana model - 2022.04.22 2432651851 Joi (690.8 MB)
  • miiana model - 2022.04.25 2434916006 Trio HHF avec mon amant 55 min de porn (2.37 GB)
  • miiana model - 2022.04.28 2438758500 Baise en soubrette footjob (1.16 GB)
  • miiana model - 2022.04.29 2439638009 Solo exhib (675.68 MB)
  • miiana model - 2022.05.01 2441779658 Dfi je me tape le livreur de sushi (1.46 GB)
  • miiana model - 2022.05.01 2441795329 Full anal (1.31 GB)
  • miiana model - 2022.05.02 2442510797 Retour de soire libertine anal baise fleur de ros (1.64 GB)
  • miiana model - 2022.05.03 2443323218 Baise dlire en mode petit chaperon rouge baise har (1.28 GB)
  • miiana model - 2022.05.04 2444485693 Joi avec une queue (593.61 MB)
  • miiana model - 2022.05.06 2445794551 Solo anal (775 MB)
  • miiana model - 2022.05.08 2448728196 Une bonne baise creampie (1.26 GB)
  • miiana model - 2022.05.09 2448707779 Retour de soire libertine baise hard anal squir (1.64 GB)
  • miiana model - 2022.05.11 2451867097 Baise anal (1.17 GB)
  • miiana model - 2022.05.13 2453056192 Strip et double godage (870.93 MB)
  • miiana model - 2022.05.16 2456063414 Dfi chasse l tudiant (885.37 MB)
  • miiana model - 2022.05.18 2457036042 Baise hard (1.18 GB)
  • miiana model - 2022.05.20 2460105722 Solo godage orgasme (363.26 MB)
  • miiana model - 2022.05.23 2461546371 Baise par les deux dpanneur (1.57 GB)
  • miiana model - 2022.05.25 2466685067 Solo (1.41 GB)
  • miiana model - 2022.05.27 2467906400 Sextape (641.78 MB)
  • miiana model - 2022.05.29 2470932559 Dfi je me fais sodomiser par un vacancier (1.26 GB)
  • miiana model - 2022.05.30 2470936964 Soire libertine avec ma copine @diamant16964963 54 m (2.36 GB)
  • miiana model - 2022.06.01 2474227351 Fellation en live (1.21 GB)
  • miiana model - 2022.06.03 2475311196 Joi (703.12 MB)
  • miiana model - 2022.06.06 2478460297 Baise hard avec trois mecs (2.8 GB)
  • miiana model - 2022.06.08 2480341808 Fellation (842.32 MB)
  • miiana model - 2022.06.10 2481523655 Solo dans la baignoire (784.47 MB)
  • miiana model - 2022.06.13 2483815087 Dfi chasse l inconnu qui finit sur un parking (1.52 GB)
  • miiana model - 2022.06.15 2488073590 Full anal (807.65 MB)
  • miiana model - 2022.06.17 2490716622 Striptease orgasme (624.18 MB)
  • miiana model - 2022.06.20 2494494131 Anal (1.31 GB)
  • miiana model - 2022.06.23 2498310148 Baise en direct (1.99 GB)
  • miiana model - 2022.06.24 2498316320 Joi (622.05 MB)
  • miiana model - 2022.06.27 2501617993 Dfi coach sportif avec ma chrie @littleangel84 (2.26 GB)
  • miiana model - 2022.06.29 2503825616 Sextape 100 fellation (719.84 MB)
  • miiana model - 2022.07.01 2504972829 Sextape exhib (681.25 MB)
  • miiana model - 2022.07.04 2507245731 Gang bang avec ma copine @Diamant16964963 @diamanta (2.46 GB)
  • miiana model - 2022.07.06 2511211573 100 footjob (717.67 MB)
  • miiana model - 2022.07.08 2514154445 Joi (649.38 MB)
  • miiana model - 2022.07.11 2517388682 Dfi lagueur pisode 34 saison 5 (916.87 MB)
  • miiana model - 2022.07.13 2520655997 Solo avec la participation de ma copine @littleangel (632.96 MB)
  • miiana model - 2022.07.15 2522082404 Orgasme striptease godage (951.58 MB)
  • miiana model - 2022.07.18 2526465828 Dfi livreur (1.44 GB)
  • miiana model - 2022.07.21 2530529449 Sextape live (1.37 GB)
  • miiana model - 2022.07.22 2531340418 Fellation la plage (577.57 MB)
  • miiana model - 2022.07.26 2536544727 Dfi le vacancier en full anal (1.47 GB)
  • miiana model - 2022.07.27 2537844743 Compilation squirt et ejac (1.29 GB)
  • miiana model - 2022.07.29 2537880260 Sextape saison 6 pisodes 3 solo (491.45 MB)
  • miiana model - 2022.08.01 2542908663 Dfi Je me fais baise par un puceau (1.6 GB)
  • miiana model - 2022.08.03 2545201851 Scary moviX full anal (1 GB)
  • miiana model - 2022.08.05 2548052060 Joi (692.14 MB)
  • miiana model - 2022.08.08 2551785591 Dfi cap d agde avec ma copine @littleangel84 (1.73 GB)
  • miiana model - 2022.08.11 2556624603 Live 100 anal (1 GB)
  • miiana model - 2022.08.12 2556981886 Baise en soubrette (1.16 GB)
  • miiana model - 2022.08.15 2561322568 Sextape baise hard (1.26 GB)
  • miiana model - 2022.08.17 2562552921 100 footjob (635.53 MB)
  • miiana model - 2022.08.19 2565606511 Solo episode 12 saison 6 (320.5 MB)
  • miiana model - 2022.08.22 2570070481 Sextape baise hard (1.17 GB)
  • miiana model - 2022.08.24 2572759722 Sextape fellation (548.93 MB)
  • miiana model - 2022.08.26 2575425366 Striptease orgasme (696.04 MB)
  • miiana model - 2022.08.29 2579462114 Sextape dfi plombier (1.68 GB)
  • miiana model - 2022.08.31 2581813668 Replay live solo (1.29 GB)
  • miiana model - 2022.09.02 2583673275 Sextape le petit chaperon rouge (1.28 GB)
  • miiana model - 2022.09.05 2588413575 Sextape colire rentre des classes (1.1 GB)
  • miiana model - 2022.09.07 2591456175 La baise est dans le prs (963.4 MB)
  • miiana model - 2022.09.09 2593865862 Sextape joi (723.5 MB)
  • miiana model - 2022.09.12 2597593268 Sextape casting x (1.79 GB)
  • miiana model - 2022.09.14 2600613522 Replay live (1.26 GB)
  • miiana model - 2022.09.16 2603533794 Gang bang (1.93 GB)
  • miiana model - 2022.09.19 2606857906 Dfi chasse l homme (1.19 GB)
  • miiana model - 2022.09.21 2610053358 Sextape (901.66 MB)
  • miiana model - 2022.09.23 2612425902 Solo (586.7 MB)
  • miiana model - 2022.09.26 2616156701 Sextape cours particulier (1.29 GB)
  • miiana model - 2022.09.28 2618769993 Replay live (1.33 GB)
  • miiana model - 2022.09.30 2621429876 JOI (814.4 MB)
  • miiana model - 2022.10.03 2625169521 Dfi (1.33 GB)
  • miiana model - 2022.10.05 2627907268 Sextape (1.2 GB)
  • miiana model - 2022.10.07 2630665422 Solo orgasme squirt (832.6 MB)
  • miiana model - 2022.10.10 2634193102 Sextape cours particulier (1.48 GB)
  • miiana model - 2022.10.12 2637386441 Trio HHF avec mon amant @bobby (2.37 GB)
  • miiana model - 2022.10.14 2639877066 Footjob (944.37 MB)
  • miiana model - 2022.10.17 2643508029 Dfi auto stoppeur (1.08 GB)
  • miiana model - 2022.10.19 2645947534 Sextape soumise fellation baveuse (1.19 GB)
  • miiana model - 2022.10.21 2647539972 Sextape exhib (583.59 MB)
  • miiana model - 2022.10.24 2647758548 Dfi je me fais baise par le tmoin du mariage (1.12 GB)
  • miiana model - 2022.10.26 2654239054 Sextape baise hard (810.52 MB)
  • miiana model - 2022.10.28 2657854845 JOI (579.14 MB)
  • miiana model - 2022.10.31 2661678299 Compilation ejac (842.95 MB)
  • miiana model - 2022.11.02 2664333501 Live (1.22 GB)
  • miiana model - 2022.11.04 2666148538 Solo (446.51 MB)
  • miiana model - 2022.11.07 2670926924 Sextape (1001.61 MB)
  • miiana model - 2022.11.09 2673713462 Sextape fellation branlette espagnol (721.76 MB)
  • miiana model - 2022.11.11 2676014976 Sextape solo (850.15 MB)
  • miiana model - 2022.11.14 2679709103 Sextape baise au sex shop (1.03 GB)
  • miiana model - 2022.11.17 2684090393 Sextape (1.22 GB)
  • miiana model - 2022.11.18 2685464546 Sextape solo (792.05 MB)
  • miiana model - 2022.11.21 2688666665 Sextape dfi Uber (1.57 GB)
  • miiana model - 2022.11.24 2692905059 Live anal (1.15 GB)
  • miiana model - 2022.11.25 2694047091 Compilation FOOTJOB (1.51 GB)
  • miiana model - 2022.11.28 2697595792 Sextape (1.52 GB)
  • miiana model - 2022.12.01 2701840774 Solo squirt (1.17 GB)
  • miiana model - 2022.12.02 2703518447 Baise hard (756.5 MB)
  • miiana model - 2022.12.05 2706954325 baise en mode htesse de lair (1.49 GB)
  • miiana model - 2022.12.07 2709499035 Sextape Gloryhole avec @littleangel84 (1.29 GB)
  • miiana model - 2022.12.09 2711895574 Sextape JOI (744.3 MB)
  • miiana model - 2022.12.12 2714098774 Sextape dfi tudiant (1.28 GB)
  • miiana model - 2022.12.14 2715949476 Compilation squirt anal DP ejac (1.39 GB)
  • miiana model - 2022.12.16 2717778864 Solo orgasme (878.47 MB)
  • miiana model - 2022.12.19 2720435004 Sextape depucelage (1.61 GB)
  • miiana model - 2022.12.21 2722135392 Sextape mre Nol (1 GB)
  • miiana model - 2022.12.23 2723915269 Solo sous le sapin (856.56 MB)
  • miiana model - 2022.12.26 2726050161 Dfi tudiant (885.38 MB)
  • miiana model - 2022.12.28 2727885247 Footjob (1.15 GB)
  • miiana model - 2022.12.30 2729636268 JOI (791.36 MB)
  • miiana model - 2023.01.02 2731961944 Sextape (1.57 GB)
  • miiana model - 2023.01.04 2733711972 Replay (910.27 MB)
  • miiana model - 2023.01.06 2735872898 Sextape solo (745.75 MB)
  • miiana model - 2023.01.10 2739255801 Sextape dfi je me fais baiser par l lectricien (1.58 GB)
  • miiana model - 2023.01.11 2740381120 Anal Soumise (1.25 GB)
  • miiana model - 2023.01.13 2742349436 Sextape (693.55 MB)
  • miiana model - 2023.01.16 2744980478 Prank je baise avec un follower devant mon homme (1.76 GB)
  • miiana model - 2023.01.18 2747320584 Sextape live (1.02 GB)
  • miiana model - 2023.01.20 2749285990 Sextape solo (329.57 MB)
  • miiana model - 2023.01.23 2751991705 (1.13 GB)
  • miiana model - 2023.01.25 2754334977 (921.06 MB)
  • miiana model - 2023.01.27 2756125389 Sextape joi (725.56 MB)
  • miiana model - 2023.01.30 2758926772 Sextape trio (1.93 GB)
  • miiana model - 2023.02.01 2761392222 (1.7 GB)
  • miiana model - 2023.02.03 2763863500 Sextape baise (1.33 GB)
  • miiana model - 2023.02.06 2766443097 Sextape gang bang (1.91 GB)
  • miiana model - 2023.02.08 2768604566 Baise hard anal squirt (1.22 GB)
  • miiana model - 2023.02.10 2769442198 Solo (833.07 MB)
  • miiana model - 2023.02.13 2774155971 Dfi le maon me sodomise anal (1.34 GB)
  • miiana model - 2023.02.15 2775977658 Fellation (719.78 MB)
  • miiana model - 2023.02.17 2778152323 Exhib solo (675.69 MB)
  • miiana model - 2023.02.20 2781226518 Dfi Guadeloupe rencontre avec un follower (831.91 MB)
  • miiana model - 2023.02.22 2783154098 Sextape anal squirt (733.95 MB)
  • miiana model - 2023.02.24 2785398015 Solo anal (248.13 MB)
  • miiana model - 2023.02.27 2788512160 Dfi inconnu sur un parking (1.52 GB)
  • miiana model - 2023.03.03 2792789342 Joi (695.39 MB)
  • miiana model - 2023.03.04 2793822988 Squirt live (1.14 GB)
  • miiana model - 2023.03.07 2796824406 Sextape (1.23 GB)
  • miiana model - 2023.03.09 2798237346 Sextape (1.29 GB)
  • miiana model - 2023.03.13 2803377996 Sextape dfi chasse l inconnu (1.39 GB)
  • miiana model - 2023.03.16 2806773067 Dfi (1.25 GB)
  • miiana model - 2023.03.20 2810774159 Sextape (1.97 GB)
  • miiana model - 2023.03.23 2814229764 Sextape (1.16 GB)
  • miiana model - 2023.03.27 2818418809 Sextape dfi (1.29 GB)
  • miiana model - 2023.03.31 2822721230 Replay live (1.22 GB)
  • miiana model - 2023.04.03 2826140664 Sextape baise hard Berlin (1.35 GB)
  • miiana model - 2023.04.06 2829376890 Sextape JOI (789.22 MB)
  • miiana model - 2023.04.10 2833495980 Sextape je baise le mec de ma copine pendant qu elle (1.06 GB)
  • miiana model - 2023.04.14 2838176066 Sextape (1.72 GB)
  • miiana model - 2023.04.17 2841248215 Sextape (1.27 GB)
  • miiana model - 2023.04.20 2844680258 Sextape solo anal (462.9 MB)
  • ()